Time;durP1;ratioP1;P1;durP2;ratioP2;P2;SDS_P1;SDS_P2;PMS_P1;PMS_P2;Temp;Humidity;BMP_temperature;BMP_pressure;BME280_temperature;BME280_humidity;BME280_pressure;Samples;Min_cycle;Max_cycle;Signal;HPM_P1;HPM_P2
2021/06/16 00:00:53;;;;;;;4.85;2.10;;;23.00;57.80;;;;;;10400728;28;20064;-59
2021/06/16 00:05:54;;;;;;;2.65;1.67;;;23.00;57.80;;;;;;10414772;28;20037;-59
2021/06/16 00:10:55;;;;;;;3.25;1.65;;;23.00;57.80;;;;;;10414207;28;20045;-59
2021/06/16 00:15:58;;;;;;;4.90;2.50;;;23.00;57.70;;;;;;10414355;28;20028;-58
2021/06/16 00:20:59;;;;;;;3.20;1.83;;;23.00;57.70;;;;;;10414411;28;20040;-59
2021/06/16 00:25:59;;;;;;;4.85;3.13;;;23.00;57.70;;;;;;10414480;28;20496;-58
2021/06/16 00:31:00;;;;;;;3.67;1.65;;;23.00;57.80;;;;;;10414051;28;20037;-59
2021/06/16 00:36:01;;;;;;;3.55;2.03;;;23.00;57.80;;;;;;10413992;28;20053;-59
2021/06/16 00:41:02;;;;;;;3.70;1.60;;;23.00;57.90;;;;;;10415809;28;20104;-59
2021/06/16 00:46:02;;;;;;;3.50;2.28;;;23.00;57.80;;;;;;10418125;28;20051;-59
2021/06/16 00:51:03;;;;;;;4.07;1.90;;;22.90;57.70;;;;;;10413360;28;20375;-59
2021/06/16 00:56:05;;;;;;;2.58;2.00;;;22.90;57.80;;;;;;10413762;28;20021;-59
2021/06/16 01:01:26;;;;;;;2.45;1.67;;;22.90;57.80;;;;;;10413507;28;20401;-58
2021/06/16 01:06:43;;;;;;;3.65;2.05;;;22.90;57.90;;;;;;10412168;28;20478;-58
2021/06/16 01:11:57;;;;;;;2.10;1.60;;;22.90;57.70;;;;;;10405827;28;20038;-59
2021/06/16 01:17:03;;;;;;;4.88;1.95;;;22.90;57.70;;;;;;10412441;28;20104;-61
2021/06/16 01:22:26;;;;;;;3.80;1.90;;;22.90;57.70;;;;;;10412987;28;20037;-61
2021/06/16 01:27:26;;;;;;;3.75;2.00;;;22.90;57.60;;;;;;10406248;28;20033;-60
2021/06/16 01:32:27;;;;;;;3.90;2.17;;;22.90;57.40;;;;;;10416862;28;20033;-64
2021/06/16 01:37:28;;;;;;;5.43;2.03;;;22.90;57.30;;;;;;10419483;28;20056;-57
2021/06/16 01:42:30;;;;;;;4.53;2.03;;;22.90;57.40;;;;;;10424983;28;20034;-57
2021/06/16 01:47:31;;;;;;;5.03;2.53;;;22.90;57.20;;;;;;10417322;28;20049;-58
2021/06/16 01:52:34;;;;;;;3.42;2.55;;;22.90;57.20;;;;;;10415547;28;20039;-57
2021/06/16 01:57:37;;;;;;;2.65;1.73;;;22.90;57.30;;;;;;10415933;28;20041;-56
2021/06/16 02:02:38;;;;;;;4.72;2.25;;;22.90;57.40;;;;;;10415935;28;20060;-57
2021/06/16 02:07:46;;;;;;;4.47;2.00;;;22.80;57.30;;;;;;10403977;28;20462;-56
2021/06/16 02:12:47;;;;;;;2.70;2.00;;;22.80;57.20;;;;;;10416730;28;20048;-58
2021/06/16 02:17:55;;;;;;;3.63;1.80;;;22.80;57.30;;;;;;10400408;28;20052;-58
2021/06/16 02:22:56;;;;;;;4.57;2.05;;;22.80;57.30;;;;;;10417558;28;20037;-58
2021/06/16 02:27:57;;;;;;;4.15;2.05;;;22.80;57.20;;;;;;10416729;28;20033;-58
2021/06/16 02:32:57;;;;;;;3.67;2.15;;;22.80;57.30;;;;;;10408946;28;20037;-58
2021/06/16 02:38:06;;;;;;;4.53;2.17;;;22.80;58.40;;;;;;10411944;28;20045;-58
2021/06/16 02:43:07;;;;;;;;;;;22.90;58.60;;;;;;10423005;28;20490;-58
2021/06/16 02:48:09;;;;;;;4.97;3.03;;;22.90;59.10;;;;;;10431887;28;20011;-57
2021/06/16 02:53:19;;;;;;;2.83;1.98;;;22.90;60.20;;;;;;10414815;28;20124;-58
2021/06/16 02:58:21;;;;;;;3.38;1.95;;;22.80;59.50;;;;;;10413950;28;20038;-57
2021/06/16 03:03:23;;;;;;;3.35;2.22;;;22.80;60.00;;;;;;10411635;28;20087;-57
2021/06/16 03:08:27;;;;;;;3.55;1.92;;;22.90;60.20;;;;;;10414368;28;20545;-58
2021/06/16 03:13:29;;;;;;;3.92;2.20;;;22.80;60.20;;;;;;10415234;28;20064;-56
2021/06/16 03:18:30;;;;;;;3.60;2.50;;;22.80;60.00;;;;;;10416008;28;20029;-58
2021/06/16 03:23:32;;;;;;;5.32;3.38;;;22.80;60.10;;;;;;10415974;28;20059;-57
2021/06/16 03:28:33;;;;;;;3.20;2.05;;;22.80;59.90;;;;;;10414655;28;20363;-58
2021/06/16 03:33:35;;;;;;;5.43;2.67;;;22.80;60.20;;;;;;10415154;28;20474;-57
2021/06/16 03:38:39;;;;;;;3.33;2.28;;;22.80;60.10;;;;;;10414020;28;20018;-58
2021/06/16 03:43:42;;;;;;;2.92;1.83;;;22.80;60.00;;;;;;10420978;28;20033;-57
2021/06/16 03:48:45;;;;;;;2.65;1.98;;;22.70;59.80;;;;;;10413258;28;20047;-58
2021/06/16 03:53:49;;;;;;;2.97;1.67;;;22.70;59.40;;;;;;10415164;28;20030;-58
2021/06/16 03:58:51;;;;;;;2.47;1.55;;;22.70;59.20;;;;;;10413426;28;20025;-58
2021/06/16 04:03:52;;;;;;;3.28;2.22;;;22.70;59.40;;;;;;10412986;28;20041;-58
2021/06/16 04:08:53;;;;;;;3.65;2.30;;;22.70;59.20;;;;;;10413432;28;20108;-58
2021/06/16 04:13:56;;;;;;;4.45;1.95;;;22.70;59.30;;;;;;10413870;28;20041;-58
2021/06/16 04:18:57;;;;;;;3.67;2.22;;;22.70;59.50;;;;;;10414163;28;20028;-57
2021/06/16 04:23:58;;;;;;;2.92;1.92;;;22.60;60.10;;;;;;10412440;28;20459;-58
2021/06/16 04:28:58;;;;;;;4.15;2.10;;;22.70;59.30;;;;;;10414073;28;20089;-57
2021/06/16 04:33:59;;;;;;;2.75;2.17;;;22.70;59.30;;;;;;10413263;28;20436;-58
2021/06/16 04:39:00;;;;;;;2.60;2.00;;;22.70;59.10;;;;;;10413681;28;20065;-57
2021/06/16 04:44:01;;;;;;;2.25;1.90;;;22.60;59.20;;;;;;10420996;28;20037;-58
2021/06/16 04:49:02;;;;;;;3.30;2.10;;;22.60;59.50;;;;;;10412190;28;20533;-57
2021/06/16 04:54:02;;;;;;;3.47;2.40;;;22.60;59.60;;;;;;10413245;28;20041;-57
2021/06/16 04:59:03;;;;;;;3.33;1.83;;;22.60;59.50;;;;;;10415700;28;20053;-57
2021/06/16 05:04:05;;;;;;;3.10;1.90;;;22.60;59.50;;;;;;10420846;28;20041;-57
2021/06/16 05:09:05;;;;;;;2.83;2.15;;;22.60;59.50;;;;;;10421219;28;20030;-58
2021/06/16 05:14:06;;;;;;;3.65;2.10;;;22.60;59.30;;;;;;10420759;28;20033;-57
2021/06/16 05:19:12;;;;;;;2.65;2.22;;;22.60;59.20;;;;;;10421046;28;20028;-58
2021/06/16 05:24:13;;;;;;;2.38;2.17;;;22.60;59.30;;;;;;10403754;28;20493;-58
2021/06/16 05:29:14;;;;;;;4.18;2.20;;;22.60;59.30;;;;;;10419293;28;20036;-58
2021/06/16 05:34:15;;;;;;;4.28;1.90;;;22.60;59.40;;;;;;10420103;28;20044;-57
2021/06/16 05:39:16;;;;;;;3.72;2.15;;;22.60;59.30;;;;;;10419981;28;20066;-58
2021/06/16 05:44:16;;;;;;;5.45;2.33;;;22.60;59.30;;;;;;10426346;28;20561;-57
2021/06/16 05:49:17;;;;;;;3.17;1.70;;;22.60;59.30;;;;;;10419469;28;20053;-56
2021/06/16 05:54:18;;;;;;;3.63;1.85;;;22.60;59.40;;;;;;10417566;28;20120;-57
2021/06/16 05:59:19;;;;;;;2.63;2.15;;;22.60;59.30;;;;;;10419420;28;20083;-58
2021/06/16 06:04:20;;;;;;;3.45;2.20;;;22.50;59.00;;;;;;10419313;28;20504;-58
2021/06/16 06:09:21;;;;;;;2.13;1.55;;;22.60;59.10;;;;;;10418611;28;20037;-57
2021/06/16 06:14:22;;;;;;;2.95;2.00;;;22.50;59.20;;;;;;10418883;28;20025;-57
2021/06/16 06:19:23;;;;;;;2.78;2.05;;;22.60;59.50;;;;;;10416836;28;20033;-57
2021/06/16 06:24:23;;;;;;;5.63;2.20;;;22.60;60.20;;;;;;10417760;28;20363;-58
2021/06/16 06:29:26;;;;;;;2.85;1.90;;;22.60;59.50;;;;;;10417968;28;20100;-58
2021/06/16 06:34:26;;;;;;;3.15;2.15;;;22.50;59.40;;;;;;10404442;28;20040;-57
2021/06/16 06:39:28;;;;;;;2.83;2.25;;;22.50;59.80;;;;;;10417681;28;20032;-58
2021/06/16 06:44:29;;;;;;;2.55;1.85;;;22.50;59.40;;;;;;10424705;28;20116;-57
2021/06/16 06:49:30;;;;;;;3.03;1.92;;;22.60;59.50;;;;;;10417419;28;20129;-57
2021/06/16 06:54:30;;;;;;;2.88;1.77;;;22.60;58.80;;;;;;10419427;28;20064;-57
2021/06/16 06:59:31;;;;;;;5.15;2.65;;;22.60;58.50;;;;;;10416465;28;20040;-57
2021/06/16 07:04:32;;;;;;;4.55;2.72;;;22.60;58.50;;;;;;10416515;28;20036;-57
2021/06/16 07:09:33;;;;;;;4.18;2.17;;;22.60;58.50;;;;;;10416374;28;20401;-57
2021/06/16 07:14:37;;;;;;;2.22;2.00;;;22.60;58.50;;;;;;10416084;28;20198;-57
2021/06/16 07:19:38;;;;;;;3.20;2.08;;;22.60;58.50;;;;;;10422061;28;20017;-57
2021/06/16 07:24:38;;;;;;;2.78;2.08;;;22.60;58.50;;;;;;10415188;28;20037;-58
2021/06/16 07:29:39;;;;;;;2.33;2.00;;;22.70;58.60;;;;;;10415666;28;20236;-57
2021/06/16 07:34:40;;;;;;;2.65;2.00;;;22.70;58.50;;;;;;10403137;28;20549;-57
2021/06/16 07:39:40;;;;;;;2.47;1.75;;;22.70;58.50;;;;;;10415314;28;20057;-58
2021/06/16 07:44:41;;;;;;;2.33;1.73;;;22.70;58.50;;;;;;10421747;28;20126;-58
2021/06/16 07:49:42;;;;;;;2.72;1.90;;;22.70;58.50;;;;;;10415186;28;20030;-58
2021/06/16 07:54:42;;;;;;;3.00;1.85;;;22.80;58.60;;;;;;10414507;28;20038;-57
2021/06/16 07:59:43;;;;;;;2.60;1.65;;;22.70;58.50;;;;;;10414509;28;20104;-58
2021/06/16 08:04:44;;;;;;;1.80;1.60;;;22.70;58.60;;;;;;10414444;28;20116;-58
2021/06/16 08:09:45;;;;;;;2.10;1.83;;;22.80;58.60;;;;;;10414272;28;20026;-56
2021/06/16 08:14:45;;;;;;;4.00;2.08;;;22.80;58.50;;;;;;10413886;28;20580;-57
2021/06/16 08:19:46;;;;;;;2.80;1.90;;;22.80;58.40;;;;;;10414372;28;20033;-57
2021/06/16 08:24:47;;;;;;;4.43;1.80;;;22.80;58.50;;;;;;10412420;28;20064;-57
2021/06/16 08:29:47;;;;;;;3.13;1.55;;;22.80;58.50;;;;;;10413839;28;20033;-58
2021/06/16 08:34:48;;;;;;;3.05;2.08;;;22.80;58.60;;;;;;10416988;28;20029;-57
2021/06/16 08:39:49;;;;;;;3.00;1.90;;;22.80;58.60;;;;;;10422240;28;20040;-57
2021/06/16 08:44:56;;;;;;;2.88;2.13;;;22.80;58.60;;;;;;10421983;28;20490;-57
2021/06/16 08:49:58;;;;;;;3.00;2.17;;;22.90;58.70;;;;;;10421073;28;20046;-57
2021/06/16 08:55:17;;;;;;;2.55;2.13;;;22.90;58.70;;;;;;10421572;28;20088;-57
2021/06/16 09:00:21;;;;;;;3.43;2.60;;;22.90;58.70;;;;;;10421884;28;20044;-58
2021/06/16 09:05:36;;;;;;;2.55;2.33;;;22.90;58.70;;;;;;10420955;28;20100;-57
2021/06/16 09:10:44;;;;;;;3.42;2.13;;;22.90;58.70;;;;;;10420258;28;20029;-58
2021/06/16 09:15:45;;;;;;;2.47;2.10;;;22.90;58.70;;;;;;10420387;28;20374;-58
2021/06/16 09:20:48;;;;;;;2.70;2.30;;;22.90;58.70;;;;;;10419855;28;20032;-58
2021/06/16 09:26:12;;;;;;;2.35;2.08;;;22.90;58.70;;;;;;10420372;28;20485;-58
2021/06/16 09:31:15;;;;;;;4.13;2.50;;;22.90;58.70;;;;;;10420227;28;20159;-57
2021/06/16 09:36:23;;;;;;;2.28;1.88;;;23.00;58.70;;;;;;10417314;28;20112;-57
2021/06/16 09:41:23;;;;;;;3.80;2.92;;;22.90;58.70;;;;;;10425136;28;20041;-58
2021/06/16 09:46:24;;;;;;;3.85;2.42;;;23.00;58.70;;;;;;10420321;28;20405;-58
2021/06/16 09:51:33;;;;;;;3.25;2.25;;;23.00;58.70;;;;;;10419398;28;20109;-58
2021/06/16 09:56:33;;;;;;;3.38;2.13;;;23.00;58.70;;;;;;10419256;28;20481;-58
2021/06/16 10:01:56;;;;;;;3.33;2.35;;;23.00;58.70;;;;;;10419429;28;20065;-58
2021/06/16 10:07:18;;;;;;;3.58;2.58;;;23.00;58.70;;;;;;10418837;28;20033;-58
2021/06/16 10:12:22;;;;;;;3.08;2.50;;;23.00;58.70;;;;;;10418791;28;20160;-57
2021/06/16 10:17:23;;;;;;;3.05;2.45;;;23.00;58.70;;;;;;10418357;28;20036;-58
2021/06/16 10:22:24;;;;;;;3.10;2.53;;;23.00;58.70;;;;;;10418352;28;20067;-58
2021/06/16 10:27:40;;;;;;;3.15;2.53;;;23.10;58.80;;;;;;10418131;28;20429;-58
2021/06/16 10:32:49;;;;;;;3.55;2.05;;;23.10;58.80;;;;;;10418004;28;20045;-58
2021/06/16 10:37:49;;;;;;;4.60;2.40;;;23.10;58.80;;;;;;10417873;28;20117;-58
2021/06/16 10:43:01;;;;;;;4.20;2.38;;;23.10;58.80;;;;;;10424832;28;20570;-58
2021/06/16 10:48:09;;;;;;;2.65;2.20;;;23.10;58.80;;;;;;10415187;28;20084;-58
2021/06/16 10:53:09;;;;;;;3.17;2.40;;;23.10;58.80;;;;;;10417384;28;20437;-58
2021/06/16 10:58:16;;;;;;;3.97;2.20;;;23.10;58.80;;;;;;10416008;28;20104;-57
2021/06/16 11:03:17;;;;;;;3.85;2.53;;;23.10;58.80;;;;;;10416688;28;20033;-56
2021/06/16 11:08:47;;;;;;;2.60;2.25;;;23.20;58.80;;;;;;10416656;28;20033;-58
2021/06/16 11:13:47;;;;;;;;;;;23.20;58.80;;;;;;10416392;28;20440;-58
2021/06/16 11:18:48;;;;;;;3.33;2.25;;;23.20;58.80;;;;;;10416555;28;19909;-58
2021/06/16 11:23:49;;;;;;;3.33;2.28;;;23.20;58.80;;;;;;10414510;28;20111;-58
2021/06/16 11:28:50;;;;;;;3.70;3.15;;;23.30;58.90;;;;;;10416031;28;20033;-57
2021/06/16 11:33:52;;;;;;;2.83;2.38;;;23.30;58.90;;;;;;10414501;28;20045;-58
2021/06/16 11:39:02;;;;;;;3.13;2.47;;;23.30;58.90;;;;;;10415395;28;20032;-58
2021/06/16 11:44:12;;;;;;;3.10;2.35;;;23.30;59.00;;;;;;10421480;28;20572;-58
2021/06/16 11:49:27;;;;;;;3.20;2.90;;;23.30;59.00;;;;;;10413645;28;20401;-57
2021/06/16 11:54:35;;;;;;;3.90;2.95;;;23.30;59.00;;;;;;10414729;28;20055;-58
2021/06/16 11:59:48;;;;;;;3.10;2.53;;;23.40;59.10;;;;;;10414764;28;20022;-58
2021/06/16 12:05:04;;;;;;;3.38;2.65;;;23.40;59.00;;;;;;10414817;28;20034;-58
2021/06/16 12:10:11;;;;;;;2.83;2.38;;;23.40;59.00;;;;;;10414563;28;20053;-58
2021/06/16 12:15:15;;;;;;;3.00;2.70;;;23.40;59.10;;;;;;10414149;28;20621;-58
2021/06/16 12:20:16;;;;;;;3.28;2.97;;;23.50;59.20;;;;;;10414433;28;20474;-57
2021/06/16 12:25:37;;;;;;;5.10;3.13;;;23.50;59.20;;;;;;10413820;28;20113;-58
2021/06/16 12:30:38;;;;;;;2.85;2.60;;;23.50;59.20;;;;;;10408991;28;20025;-58
2021/06/16 12:35:41;;;;;;;3.97;2.95;;;23.50;59.10;;;;;;10413402;28;20033;-58
2021/06/16 12:40:42;;;;;;;4.78;2.63;;;23.60;59.20;;;;;;10413909;28;20231;-58
2021/06/16 12:45:43;;;;;;;3.35;3.00;;;23.60;59.20;;;;;;10420464;28;20042;-58
2021/06/16 12:51:02;;;;;;;3.33;2.90;;;23.60;59.20;;;;;;10413645;28;20086;-58
2021/06/16 12:56:05;;;;;;;;;;;23.60;59.30;;;;;;10413824;28;20025;-57
2021/06/16 13:01:19;;;;;;;3.80;3.38;;;23.60;59.20;;;;;;10413527;28;20254;-56
2021/06/16 13:06:20;;;;;;;3.40;2.95;;;23.60;59.30;;;;;;10413332;28;20105;-57
2021/06/16 13:11:28;;;;;;;4.32;3.15;;;23.60;59.30;;;;;;10412880;28;20507;-58
2021/06/16 13:16:29;;;;;;;3.45;2.92;;;23.70;59.30;;;;;;10413015;28;20156;-57
2021/06/16 13:21:30;;;;;;;4.20;3.25;;;23.60;59.30;;;;;;10416747;28;20551;-58
2021/06/16 13:26:31;;;;;;;4.85;3.47;;;23.70;59.30;;;;;;10420561;28;20029;-59
2021/06/16 13:31:31;;;;;;;3.90;3.47;;;23.70;59.30;;;;;;10420233;28;20041;-58
2021/06/16 13:36:32;;;;;;;4.05;3.10;;;23.70;59.30;;;;;;10419917;28;20112;-58
2021/06/16 13:41:34;;;;;;;3.25;2.95;;;23.70;59.30;;;;;;10426202;28;20033;-58
2021/06/16 13:46:34;;;;;;;4.68;3.33;;;23.70;59.30;;;;;;10419690;28;20112;-57
2021/06/16 13:51:35;;;;;;;3.55;2.60;;;23.70;59.30;;;;;;10419482;28;20113;-58
2021/06/16 13:56:36;;;;;;;3.42;3.10;;;23.70;59.40;;;;;;10419451;28;20048;-58
2021/06/16 14:01:36;;;;;;;3.30;2.97;;;23.70;59.30;;;;;;10419130;28;20418;-58
2021/06/16 14:06:37;;;;;;;4.15;3.47;;;23.70;59.40;;;;;;10419301;28;20124;-56
2021/06/16 14:11:38;;;;;;;3.58;3.05;;;23.70;59.40;;;;;;10418568;28;20068;-58
2021/06/16 14:16:38;;;;;;;3.90;3.30;;;23.70;59.40;;;;;;10418698;28;20068;-59
2021/06/16 14:21:39;;;;;;;4.00;3.60;;;23.70;59.50;;;;;;10417488;28;20030;-58
2021/06/16 14:26:40;;;;;;;3.90;3.50;;;23.70;59.50;;;;;;10417647;28;20048;-58
2021/06/16 14:31:40;;;;;;;5.07;3.80;;;23.70;59.50;;;;;;10418031;28;20377;-58
2021/06/16 14:36:41;;;;;;;4.05;3.65;;;23.70;59.50;;;;;;10411916;28;20037;-58
2021/06/16 14:41:42;;;;;;;4.05;3.35;;;23.70;59.50;;;;;;10425176;28;20123;-57
2021/06/16 14:46:43;;;;;;;3.60;3.30;;;23.70;59.60;;;;;;10417218;28;20505;-58
2021/06/16 14:51:43;;;;;;;3.83;3.22;;;23.70;59.60;;;;;;10417223;28;20034;-58
2021/06/16 14:56:45;;;;;;;3.70;3.35;;;23.70;59.60;;;;;;10416757;28;20117;-58
2021/06/16 15:01:45;;;;;;;5.30;4.40;;;23.70;59.60;;;;;;10416884;28;20404;-58
2021/06/16 15:06:46;;;;;;;4.50;4.10;;;23.70;59.60;;;;;;10416584;28;20081;-58
2021/06/16 15:11:47;;;;;;;4.38;3.78;;;23.70;59.60;;;;;;10416550;28;20584;-57
2021/06/16 15:16:48;;;;;;;4.20;3.67;;;23.70;59.60;;;;;;10416380;28;20041;-57
2021/06/16 15:21:49;;;;;;;4.90;3.75;;;23.70;59.70;;;;;;10416069;28;20030;-58
2021/06/16 15:26:50;;;;;;;4.30;3.90;;;23.70;59.70;;;;;;10415148;28;20414;-57
2021/06/16 15:31:50;;;;;;;5.22;4.25;;;23.70;59.70;;;;;;10415866;28;20444;-58
2021/06/16 15:36:51;;;;;;;5.10;4.10;;;23.70;59.80;;;;;;10415127;28;20110;-57
2021/06/16 15:41:54;;;;;;;4.05;3.47;;;23.70;59.80;;;;;;10421970;28;20035;-57
2021/06/16 15:46:54;;;;;;;5.35;4.30;;;23.70;59.80;;;;;;10414970;28;20373;-58
2021/06/16 15:51:55;;;;;;;4.10;3.63;;;23.70;59.80;;;;;;10414768;28;20040;-58
2021/06/16 15:56:56;;;;;;;4.70;4.10;;;23.70;59.80;;;;;;10414726;28;20112;-58
2021/06/16 16:01:56;;;;;;;4.30;3.90;;;23.70;59.70;;;;;;10414682;28;20041;-57
2021/06/16 16:06:57;;;;;;;4.85;4.28;;;23.70;59.70;;;;;;10414709;28;20113;-58
2021/06/16 16:11:58;;;;;;;4.47;3.90;;;23.70;59.70;;;;;;10413963;28;20112;-57
2021/06/16 16:16:59;;;;;;;4.88;4.38;;;23.70;59.80;;;;;;10413373;28;20044;-57
2021/06/16 16:22:00;;;;;;;5.05;4.55;;;23.70;59.70;;;;;;10414753;28;20033;-58
2021/06/16 16:27:00;;;;;;;4.43;4.03;;;23.70;59.70;;;;;;10414138;28;20026;-57
2021/06/16 16:32:01;;;;;;;4.75;3.78;;;23.70;59.80;;;;;;10413751;28;20033;-58
2021/06/16 16:37:02;;;;;;;5.25;4.03;;;23.70;59.70;;;;;;10414148;28;20033;-58
2021/06/16 16:42:03;;;;;;;5.13;4.03;;;23.80;59.80;;;;;;10436285;28;20183;-58
2021/06/16 16:47:04;;;;;;;5.22;4.72;;;23.80;59.80;;;;;;10412421;28;20057;-58
2021/06/16 16:52:05;;;;;;;5.95;5.45;;;23.70;59.70;;;;;;10413561;28;20025;-58
2021/06/16 16:57:06;;;;;;;4.57;4.18;;;23.70;59.70;;;;;;10418694;28;20030;-58
2021/06/16 17:02:07;;;;;;;3.95;3.55;;;23.80;59.80;;;;;;10421790;28;20458;-58
2021/06/16 17:07:08;;;;;;;5.57;4.00;;;23.80;59.80;;;;;;10421646;28;20470;-58
2021/06/16 17:12:09;;;;;;;5.13;4.63;;;23.80;59.80;;;;;;10421113;28;20112;-56
2021/06/16 17:17:10;;;;;;;4.65;4.20;;;23.70;59.70;;;;;;10420026;28;20099;-58
2021/06/16 17:22:11;;;;;;;4.90;4.40;;;23.70;59.70;;;;;;10420717;28;20543;-58
2021/06/16 17:27:12;;;;;;;6.28;4.75;;;23.80;59.80;;;;;;10420424;28;20218;-57
2021/06/16 17:32:12;;;;;;;5.13;4.63;;;23.80;59.80;;;;;;10420188;28;20497;-58
2021/06/16 17:37:13;;;;;;;4.97;4.20;;;23.80;59.70;;;;;;10420334;28;20424;-58
2021/06/16 17:42:14;;;;;;;4.75;4.28;;;23.80;59.70;;;;;;10427097;28;20120;-58
2021/06/16 17:47:15;;;;;;;5.15;4.68;;;23.80;59.70;;;;;;10419866;28;20053;-58
2021/06/16 17:52:16;;;;;;;5.70;4.80;;;23.80;59.70;;;;;;10419659;28;20394;-58
2021/06/16 17:57:16;;;;;;;4.47;4.07;;;23.80;59.70;;;;;;10419856;28;20565;-58
2021/06/16 18:02:17;;;;;;;4.90;4.47;;;23.80;59.70;;;;;;10419463;28;20116;-57
2021/06/16 18:07:18;;;;;;;6.15;4.30;;;23.80;59.80;;;;;;10419017;28;20053;-58
2021/06/16 18:12:18;;;;;;;5.20;4.70;;;23.80;59.80;;;;;;10418745;28;20038;-58
2021/06/16 18:17:20;;;;;;;4.80;4.30;;;23.80;59.80;;;;;;10418896;28;20052;-58
2021/06/16 18:22:21;;;;;;;4.55;4.13;;;23.80;59.70;;;;;;10419064;28;20029;-57
2021/06/16 18:27:22;;;;;;;4.88;4.38;;;23.80;59.70;;;;;;10418280;28;20513;-58
2021/06/16 18:32:23;;;;;;;4.45;3.95;;;23.80;59.70;;;;;;10414440;28;20042;-58
2021/06/16 18:37:24;;;;;;;4.68;4.28;;;23.80;59.70;;;;;;10408890;28;20029;-57
2021/06/16 18:42:29;;;;;;;4.80;4.40;;;23.80;59.70;;;;;;10425120;28;20036;-58
2021/06/16 18:47:30;;;;;;;5.15;4.65;;;23.80;59.70;;;;;;10417491;28;20069;-58
2021/06/16 18:52:31;;;;;;;4.97;4.47;;;23.80;59.80;;;;;;10411868;28;20084;-58
2021/06/16 18:57:32;;;;;;;5.00;4.60;;;23.90;59.80;;;;;;10417296;28;20029;-58
2021/06/16 19:02:40;;;;;;;4.40;4.00;;;23.80;59.80;;;;;;10417035;28;20071;-58
2021/06/16 19:07:42;;;;;;;4.50;3.92;;;23.90;59.80;;;;;;10416896;28;20036;-58
2021/06/16 19:12:43;;;;;;;4.88;4.47;;;23.90;59.90;;;;;;10416685;28;20129;-58
2021/06/16 19:17:44;;;;;;;5.60;5.10;;;23.80;59.80;;;;;;10415771;28;20120;-58
2021/06/16 19:22:46;;;;;;;6.10;5.05;;;23.90;59.90;;;;;;10415881;28;20037;-58
2021/06/16 19:27:47;;;;;;;5.10;4.60;;;23.90;59.90;;;;;;10415978;28;20053;-58
2021/06/16 19:32:51;;;;;;;5.40;4.90;;;23.90;60.00;;;;;;10408462;28;20038;-58
2021/06/16 19:37:54;;;;;;;5.82;5.32;;;23.90;60.00;;;;;;10410180;28;20022;-58
2021/06/16 19:42:54;;;;;;;5.57;5.18;;;23.90;60.00;;;;;;10419617;28;20069;-58
2021/06/16 19:47:55;;;;;;;5.07;4.57;;;23.90;60.10;;;;;;10415080;28;20124;-58
2021/06/16 19:52:56;;;;;;;5.43;4.93;;;23.90;60.10;;;;;;10415458;28;20106;-58
2021/06/16 19:57:57;;;;;;;5.63;5.15;;;23.90;60.10;;;;;;10415137;28;20369;-58
2021/06/16 20:02:59;;;;;;;5.53;5.03;;;23.90;60.10;;;;;;10415214;28;20079;-58
2021/06/16 20:07:59;;;;;;;5.53;4.65;;;23.90;60.10;;;;;;10414956;28;20037;-58
2021/06/16 20:13:00;;;;;;;5.05;4.55;;;23.90;60.20;;;;;;10413932;28;20120;-58
2021/06/16 20:18:01;;;;;;;11.02;5.47;;;23.90;60.20;;;;;;10414669;28;20035;-58
2021/06/16 20:23:04;;;;;;;5.53;5.03;;;23.90;60.30;;;;;;10413820;28;20112;-56
2021/06/16 20:28:05;;;;;;;5.70;5.20;;;23.90;60.30;;;;;;10412844;28;20032;-58
2021/06/16 20:33:06;;;;;;;5.43;4.93;;;23.90;60.40;;;;;;10413721;28;20040;-58
2021/06/16 20:38:07;;;;;;;5.50;4.95;;;23.90;60.50;;;;;;10413672;28;20025;-57
2021/06/16 20:43:08;;;;;;;6.03;5.43;;;23.90;60.50;;;;;;10418127;28;20042;-58
2021/06/16 20:48:09;;;;;;;6.78;6.22;;;23.90;60.70;;;;;;10413204;28;20096;-58
2021/06/16 20:53:11;;;;;;;6.45;5.85;;;23.90;60.70;;;;;;10412813;28;20030;-58
2021/06/16 20:58:12;;;;;;;6.72;6.13;;;23.90;60.80;;;;;;10412234;28;20076;-58
2021/06/16 21:03:13;;;;;;;6.53;5.93;;;23.90;60.90;;;;;;10412552;28;20490;-58
2021/06/16 21:08:14;;;;;;;6.72;6.13;;;23.90;60.90;;;;;;10413230;28;20091;-58
2021/06/16 21:13:15;;;;;;;7.05;6.45;;;23.90;61.00;;;;;;10413231;28;20112;-58
2021/06/16 21:18:19;;;;;;;7.30;6.70;;;23.90;61.00;;;;;;10412841;28;20033;-58
2021/06/16 21:23:20;;;;;;;7.68;7.03;;;23.90;61.10;;;;;;10412598;28;20080;-58
2021/06/16 21:28:21;;;;;;;7.18;6.57;;;23.90;61.30;;;;;;10413541;28;20064;-57
2021/06/16 21:33:21;;;;;;;7.43;6.72;;;23.90;61.30;;;;;;10412181;28;20048;-57
2021/06/16 21:38:22;;;;;;;8.00;7.20;;;23.80;61.30;;;;;;10412421;28;20052;-58
2021/06/16 21:43:25;;;;;;;8.70;6.45;;;23.90;61.30;;;;;;10421853;28;20044;-58
2021/06/16 21:48:25;;;;;;;7.15;6.55;;;23.90;61.30;;;;;;10419473;28;20049;-58
2021/06/16 21:53:27;;;;;;;7.20;6.60;;;23.90;61.30;;;;;;10417919;28;20029;-58
2021/06/16 21:58:28;;;;;;;7.57;6.80;;;23.90;61.30;;;;;;10418962;28;20030;-58
2021/06/16 22:03:28;;;;;;;7.47;6.80;;;23.90;61.30;;;;;;10419182;28;20033;-58
2021/06/16 22:08:29;;;;;;;8.50;7.78;;;23.90;61.30;;;;;;10418832;28;20029;-58
2021/06/16 22:13:30;;;;;;;10.15;7.78;;;23.90;61.30;;;;;;10418379;28;20041;-58
2021/06/16 22:18:31;;;;;;;7.85;7.05;;;23.90;61.30;;;;;;10418518;28;20103;-58
2021/06/16 22:23:33;;;;;;;7.95;7.20;;;23.90;61.30;;;;;;10417881;28;20076;-56
2021/06/16 22:28:34;;;;;;;8.18;7.20;;;23.90;61.30;;;;;;10416767;28;20029;-57
2021/06/16 22:33:37;;;;;;;9.32;8.35;;;23.90;61.30;;;;;;10417303;28;20034;-58
2021/06/16 22:38:37;;;;;;;8.50;7.70;;;23.90;61.30;;;;;;10417668;28;20168;-58
2021/06/16 22:43:38;;;;;;;8.05;7.35;;;23.90;61.30;;;;;;10423455;28;20140;-58
2021/06/16 22:48:39;;;;;;;8.23;7.53;;;23.80;61.20;;;;;;10416932;28;20056;-58
2021/06/16 22:53:40;;;;;;;9.48;8.68;;;23.90;61.30;;;;;;10414336;28;20121;-58
2021/06/16 22:58:40;;;;;;;9.18;8.38;;;23.90;61.30;;;;;;10416775;28;20034;-57
2021/06/16 23:03:41;;;;;;;8.63;7.82;;;23.80;61.30;;;;;;10416153;28;20039;-58
2021/06/16 23:08:42;;;;;;;8.75;7.90;;;23.90;61.40;;;;;;10416494;28;20083;-58
2021/06/16 23:13:43;;;;;;;9.45;8.52;;;23.90;61.30;;;;;;10416036;28;20168;-58
2021/06/16 23:18:43;;;;;;;9.20;8.40;;;23.80;61.30;;;;;;10416108;28;20033;-58
2021/06/16 23:23:44;;;;;;;8.98;8.27;;;23.80;61.30;;;;;;10415614;28;20048;-58
2021/06/16 23:28:45;;;;;;;9.73;8.82;;;23.80;61.30;;;;;;10415509;28;20057;-58
2021/06/16 23:33:46;;;;;;;9.60;8.80;;;23.80;61.30;;;;;;10415074;28;20026;-58
2021/06/16 23:38:46;;;;;;;9.55;8.75;;;23.80;61.30;;;;;;10415170;28;20108;-58
2021/06/16 23:43:47;;;;;;;10.57;9.68;;;23.80;61.30;;;;;;10422119;28;20112;-58
2021/06/16 23:48:48;;;;;;;10.80;9.80;;;23.80;61.30;;;;;;10414807;28;20042;-58
2021/06/16 23:53:48;;;;;;;11.02;10.02;;;23.90;61.40;;;;;;10414339;28;20486;-58
2021/06/16 23:58:49;;;;;;;10.52;9.63;;;23.80;61.40;;;;;;10414586;28;20052;-58
